Time;durP1;ratioP1;P1;durP2;ratioP2;P2;SDS_P1;SDS_P2;PMS_P1;PMS_P2;Temp;Humidity;BMP_temperature;BMP_pressure;BME280_temperature;BME280_humidity;BME280_pressure;Samples;Min_cycle;Max_cycle;Signal;HPM_P1;HPM_P2
2023/07/28 00:02:18;;;;;;;30.20;11.77;;;17.70;99.90;;;;;;5135184;28;20039;-75
2023/07/28 00:04:44;;;;;;;;;;;17.70;99.90;;;;;;5135263;28;20096;-75
2023/07/28 00:07:09;;;;;;;28.40;11.60;;;17.70;99.90;;;;;;5116283;28;19915;-74
2023/07/28 00:09:35;;;;;;;26.33;11.00;;;17.70;99.90;;;;;;5135028;28;20039;-71
2023/07/28 00:12:01;;;;;;;28.17;11.25;;;17.70;99.90;;;;;;5116462;28;20047;-75
2023/07/28 00:14:28;;;;;;;34.93;11.77;;;17.70;99.90;;;;;;5117206;28;20039;-76
2023/07/28 00:16:55;;;;;;;30.75;13.02;;;17.70;99.90;;;;;;5134882;28;20075;-74
2023/07/28 00:19:21;;;;;;;30.17;11.85;;;17.70;99.90;;;;;;5134798;28;20432;-76
2023/07/28 00:21:50;;;;;;;32.80;12.63;;;17.70;99.90;;;;;;5134857;28;20042;-76
2023/07/28 00:24:17;;;;;;;32.35;12.35;;;17.70;99.90;;;;;;5116656;28;20039;-75
2023/07/28 00:26:43;;;;;;;30.30;11.18;;;17.70;99.90;;;;;;5117191;28;20130;-75
2023/07/28 00:29:09;;;;;;;30.87;12.33;;;17.70;99.90;;;;;;5134508;28;20035;-77
2023/07/28 00:31:35;;;;;;;30.40;12.65;;;17.70;99.90;;;;;;5134465;28;20273;-77
2023/07/28 00:34:02;;;;;;;35.03;13.60;;;17.70;99.90;;;;;;5116487;28;20470;-77
2023/07/28 00:36:28;;;;;;;31.30;12.70;;;17.70;99.90;;;;;;5134605;27;20277;-77
2023/07/28 00:38:54;;;;;;;35.43;13.37;;;17.70;99.90;;;;;;5137891;27;20039;-77
2023/07/28 00:41:19;;;;;;;29.43;12.57;;;17.70;99.90;;;;;;5138761;27;20104;-76
2023/07/28 00:43:45;;;;;;;32.53;12.30;;;17.70;99.90;;;;;;5119937;27;20126;-76
2023/07/28 00:46:11;;;;;;;36.13;13.57;;;17.70;99.90;;;;;;5138839;27;20095;-75
2023/07/28 00:48:38;;;;;;;36.10;13.13;;;17.70;99.90;;;;;;5119584;27;20106;-75
2023/07/28 00:51:04;;;;;;;31.05;13.25;;;17.70;99.90;;;;;;5138162;27;20043;-75
2023/07/28 00:53:30;;;;;;;30.57;12.43;;;17.70;99.90;;;;;;5153998;27;20048;-76
2023/07/28 00:55:56;;;;;;;29.88;10.98;;;17.70;99.90;;;;;;5161346;27;20035;-80
2023/07/28 00:58:22;;;;;;;38.17;13.00;;;17.70;99.90;;;;;;5139397;27;20108;-76
2023/07/28 01:00:48;;;;;;;32.43;13.53;;;17.70;99.90;;;;;;5138069;27;20035;-76
2023/07/28 01:03:15;;;;;;;33.47;13.03;;;17.70;99.90;;;;;;5145000;27;20441;-78
2023/07/28 01:06:03;;;;;;;37.88;12.60;;;17.70;99.90;;;;;;5138165;27;20050;-76
2023/07/28 01:08:36;;;;;;;37.47;13.13;;;17.70;99.90;;;;;;5139158;27;20031;-77
2023/07/28 01:11:03;;;;;;;38.53;13.88;;;17.70;99.90;;;;;;5138290;27;20051;-77
2023/07/28 01:13:28;;;;;;;42.28;13.82;;;17.70;99.90;;;;;;5120498;27;20042;-78
2023/07/28 01:15:54;;;;;;;30.30;14.07;;;17.70;99.90;;;;;;5138572;27;20351;-76
2023/07/28 01:18:20;;;;;;;33.53;13.13;;;17.70;99.90;;;;;;5138007;27;20485;-78
2023/07/28 01:20:47;;;;;;;42.13;13.77;;;17.70;99.90;;;;;;5120495;27;20179;-75
2023/07/28 01:23:21;;;;;;;34.03;13.98;;;17.70;99.90;;;;;;5138200;27;20042;-79
2023/07/28 01:26:07;;;;;;;32.38;14.18;;;17.70;99.90;;;;;;5119316;27;20038;-78
2023/07/28 01:28:37;;;;;;;39.22;14.43;;;17.70;99.90;;;;;;5138324;27;20408;-80
2023/07/28 01:31:04;;;;;;;38.40;13.43;;;17.70;99.90;;;;;;5118976;27;20557;-79
2023/07/28 01:33:30;;;;;;;36.08;14.40;;;17.70;99.90;;;;;;5137474;27;20038;-79
2023/07/28 01:35:56;;;;;;;38.10;14.60;;;17.70;99.90;;;;;;5137853;27;20254;-79
2023/07/28 01:38:22;;;;;;;35.70;12.00;;;17.70;99.90;;;;;;5119338;27;20180;-78
2023/07/28 01:40:48;;;;;;;33.00;14.40;;;17.70;99.90;;;;;;5103262;27;20347;-79
2023/07/28 01:43:13;;;;;;;32.40;12.93;;;17.70;99.90;;;;;;5137402;27;20378;-77
2023/07/28 01:45:39;;;;;;;33.22;13.95;;;17.70;99.90;;;;;;5119291;27;20049;-77
2023/07/28 01:48:05;;;;;;;38.30;13.88;;;17.70;99.90;;;;;;5119155;27;20043;-77
2023/07/28 01:50:31;;;;;;;33.75;13.18;;;17.70;99.90;;;;;;5136864;27;20107;-78
2023/07/28 01:52:57;;;;;;;31.07;12.50;;;17.70;99.90;;;;;;5120958;27;20035;-78
2023/07/28 01:55:22;;;;;;;26.07;12.87;;;17.70;99.90;;;;;;5138797;27;20043;-77
2023/07/28 01:57:57;;;;;;;34.10;12.90;;;17.70;99.90;;;;;;5137248;27;20035;-76
2023/07/28 02:00:23;;;;;;;29.30;12.95;;;17.70;99.90;;;;;;5137467;27;20050;-77
2023/07/28 02:02:49;;;;;;;28.43;12.17;;;17.70;99.90;;;;;;5138876;27;20047;-76
2023/07/28 02:05:15;;;;;;;26.20;11.35;;;17.70;99.90;;;;;;5139036;27;20343;-77
2023/07/28 02:07:41;;;;;;;26.05;11.68;;;17.70;99.90;;;;;;5139027;27;20050;-76
2023/07/28 02:10:07;;;;;;;29.25;11.52;;;17.70;99.90;;;;;;5163260;27;20039;-72
2023/07/28 02:12:33;;;;;;;28.30;11.70;;;17.70;99.90;;;;;;5138868;27;20047;-77
2023/07/28 02:14:59;;;;;;;29.47;11.63;;;17.70;99.90;;;;;;5119063;27;20038;-76
2023/07/28 02:17:25;;;;;;;32.47;11.95;;;17.70;99.90;;;;;;5119329;27;20042;-78
2023/07/28 02:19:50;;;;;;;31.27;11.73;;;17.70;99.90;;;;;;5137172;27;20178;-78
2023/07/28 02:22:16;;;;;;;31.63;11.63;;;17.70;99.90;;;;;;5153310;27;20038;-78
2023/07/28 02:24:42;;;;;;;32.37;13.00;;;17.70;99.90;;;;;;5135991;27;20126;-76
2023/07/28 02:27:08;;;;;;;32.63;12.10;;;17.70;99.90;;;;;;5137121;27;20035;-77
2023/07/28 02:29:33;;;;;;;28.60;12.47;;;17.70;99.90;;;;;;5118316;27;20035;-76
2023/07/28 02:31:59;;;;;;;32.07;12.70;;;17.70;99.90;;;;;;5136969;27;20061;-77
2023/07/28 02:34:25;;;;;;;34.67;13.27;;;17.70;99.90;;;;;;5101370;27;20061;-77
2023/07/28 02:36:50;;;;;;;28.92;11.57;;;17.70;99.90;;;;;;5137560;27;20050;-76
2023/07/28 02:39:16;;;;;;;28.43;11.93;;;17.70;99.90;;;;;;5118538;27;20539;-75
2023/07/28 02:41:42;;;;;;;34.50;11.88;;;17.70;99.90;;;;;;5137151;27;20031;-76
2023/07/28 02:44:08;;;;;;;28.83;12.70;;;17.80;99.90;;;;;;5118223;27;20383;-76
2023/07/28 02:46:34;;;;;;;33.67;12.50;;;17.80;99.90;;;;;;5152744;27;20046;-75
2023/07/28 02:48:59;;;;;;;28.90;11.63;;;17.80;99.90;;;;;;5117428;27;20045;-76
2023/07/28 02:51:25;;;;;;;32.63;12.80;;;17.80;99.90;;;;;;5118785;27;20043;-78
2023/07/28 02:53:51;;;;;;;30.07;12.20;;;17.80;99.90;;;;;;5138051;27;20042;-74
2023/07/28 02:56:16;;;;;;;31.83;12.20;;;17.80;99.90;;;;;;5120145;27;20062;-77
2023/07/28 02:58:42;;;;;;;34.03;12.10;;;17.80;99.90;;;;;;5155054;27;20129;-73
2023/07/28 03:01:08;;;;;;;33.97;12.40;;;17.80;99.90;;;;;;5136818;27;20046;-76
2023/07/28 03:03:34;;;;;;;26.30;11.63;;;17.80;99.90;;;;;;5118791;27;20429;-77
2023/07/28 03:05:59;;;;;;;31.00;10.93;;;17.80;99.90;;;;;;5136572;27;20049;-76
2023/07/28 03:08:25;;;;;;;27.53;12.33;;;17.80;99.90;;;;;;5136579;27;20069;-74
2023/07/28 03:10:55;;;;;;;33.80;11.73;;;17.80;99.90;;;;;;5137076;27;20062;-75
2023/07/28 03:13:21;;;;;;;30.75;12.02;;;17.80;99.90;;;;;;5136866;27;20058;-75
2023/07/28 03:15:47;;;;;;;33.10;12.87;;;17.80;99.90;;;;;;5119447;27;20142;-73
2023/07/28 03:18:12;;;;;;;33.05;12.18;;;17.80;99.90;;;;;;5088452;27;20045;-75
2023/07/28 03:20:38;;;;;;;27.67;12.05;;;17.80;99.90;;;;;;5120862;27;20042;-75
2023/07/28 03:23:04;;;;;;;31.45;12.45;;;17.80;99.90;;;;;;5136454;27;20031;-74
2023/07/28 03:25:29;;;;;;;33.30;11.33;;;17.80;99.90;;;;;;5118764;27;20122;-73
2023/07/28 03:27:55;;;;;;;30.77;12.20;;;17.80;99.90;;;;;;5136741;27;20047;-74
2023/07/28 03:30:21;;;;;;;30.42;12.25;;;17.80;99.90;;;;;;5119116;28;20126;-75
2023/07/28 03:32:47;;;;;;;30.77;11.47;;;17.80;99.90;;;;;;5119413;27;20080;-74
2023/07/28 03:35:13;;;;;;;29.87;13.03;;;17.80;99.90;;;;;;5100584;27;20498;-73
2023/07/28 03:37:39;;;;;;;30.27;12.05;;;17.80;99.90;;;;;;5136710;27;20066;-74
2023/07/28 03:40:05;;;;;;;29.43;12.03;;;17.80;99.90;;;;;;5135651;27;20115;-75
2023/07/28 03:42:31;;;;;;;30.83;12.23;;;17.80;99.90;;;;;;5136783;27;20050;-74
2023/07/28 03:44:57;;;;;;;27.92;12.63;;;17.80;99.90;;;;;;5152890;27;20047;-73
2023/07/28 03:47:23;;;;;;;28.90;12.10;;;17.80;99.90;;;;;;5152955;27;20050;-75
2023/07/28 03:49:49;;;;;;;32.73;12.77;;;17.80;99.90;;;;;;5136199;27;20042;-73
2023/07/28 03:52:15;;;;;;;38.67;13.37;;;17.80;99.90;;;;;;5137285;27;20115;-75
2023/07/28 03:54:41;;;;;;;32.30;12.23;;;17.80;99.90;;;;;;5137437;27;20039;-75
2023/07/28 03:57:08;;;;;;;26.90;11.50;;;17.90;99.90;;;;;;5101549;28;20063;-79
2023/07/28 03:59:34;;;;;;;34.97;12.75;;;17.80;99.90;;;;;;5136458;28;20489;-74
2023/07/28 04:01:59;;;;;;;27.33;10.93;;;17.80;99.90;;;;;;5118476;28;20035;-74
2023/07/28 04:04:25;;;;;;;29.57;11.43;;;17.90;99.90;;;;;;5137001;28;20476;-74
2023/07/28 04:06:52;;;;;;;28.83;12.10;;;17.90;99.90;;;;;;5117976;28;20043;-72
2023/07/28 04:09:18;;;;;;;28.58;11.80;;;17.90;99.90;;;;;;5118296;28;20043;-75
2023/07/28 04:11:44;;;;;;;29.23;12.23;;;17.90;99.90;;;;;;5117673;28;20047;-73
2023/07/28 04:14:09;;;;;;;30.85;12.38;;;17.80;99.90;;;;;;5156847;27;20088;-74
2023/07/28 04:16:35;;;;;;;36.07;12.43;;;17.90;99.90;;;;;;5141124;27;20062;-73
2023/07/28 04:19:01;;;;;;;29.27;12.43;;;17.90;99.90;;;;;;5140575;27;20035;-75
2023/07/28 04:21:27;;;;;;;31.73;11.73;;;17.90;99.90;;;;;;5140295;27;20051;-73
2023/07/28 04:23:52;;;;;;;30.10;12.17;;;17.90;99.90;;;;;;5141071;27;20046;-72
2023/07/28 04:26:18;;;;;;;31.17;11.60;;;17.90;99.90;;;;;;5148640;27;20074;-73
2023/07/28 04:28:44;;;;;;;30.37;12.63;;;17.90;99.90;;;;;;5171276;27;20042;-72
2023/07/28 04:31:11;;;;;;;34.83;12.00;;;18.00;99.90;;;;;;5140832;27;20131;-74
2023/07/28 04:33:40;;;;;;;32.00;12.52;;;18.00;99.90;;;;;;5156541;27;20382;-74
2023/07/28 04:36:06;;;;;;;32.22;13.05;;;18.00;99.90;;;;;;5121344;27;20042;-73
2023/07/28 04:38:32;;;;;;;32.07;12.40;;;18.00;99.90;;;;;;5139438;27;20041;-71
2023/07/28 04:40:57;;;;;;;36.10;13.63;;;18.00;99.90;;;;;;5139771;27;20039;-73
2023/07/28 04:43:23;;;;;;;32.93;12.57;;;18.00;99.90;;;;;;5120687;27;20039;-74
2023/07/28 04:45:49;;;;;;;33.90;12.97;;;18.00;99.90;;;;;;5154563;27;20050;-73
2023/07/28 04:48:14;;;;;;;38.30;14.23;;;18.00;99.90;;;;;;5120484;27;20085;-73
2023/07/28 04:50:40;;;;;;;32.57;13.67;;;18.00;99.90;;;;;;5120642;27;20047;-74
2023/07/28 04:53:06;;;;;;;34.67;13.67;;;18.00;99.90;;;;;;5139366;27;20047;-72
2023/07/28 04:55:32;;;;;;;32.43;13.33;;;18.00;99.90;;;;;;5138359;27;20043;-72
2023/07/28 04:57:57;;;;;;;32.87;12.90;;;18.00;99.90;;;;;;5138587;27;20035;-72
2023/07/28 05:00:23;;;;;;;31.60;12.90;;;18.00;99.90;;;;;;5120239;27;20039;-74
2023/07/28 05:02:49;;;;;;;36.10;13.83;;;18.10;99.90;;;;;;5120428;27;20050;-73
2023/07/28 05:05:15;;;;;;;31.23;13.70;;;18.10;99.90;;;;;;5120523;27;20043;-73
2023/07/28 05:07:41;;;;;;;35.23;12.97;;;18.10;99.90;;;;;;5154815;27;20082;-72
2023/07/28 05:10:07;;;;;;;33.13;12.33;;;18.10;99.90;;;;;;5137694;27;20300;-72
2023/07/28 05:12:33;;;;;;;28.70;13.10;;;18.10;99.90;;;;;;5119673;27;20107;-74
2023/07/28 05:14:59;;;;;;;34.50;13.23;;;18.10;99.90;;;;;;5138533;27;20043;-73
2023/07/28 05:17:25;;;;;;;35.90;13.73;;;18.10;99.90;;;;;;5137719;27;20172;-73
2023/07/28 05:19:51;;;;;;;34.03;13.97;;;18.10;99.90;;;;;;5138426;27;20043;-72
2023/07/28 05:22:17;;;;;;;38.67;14.27;;;18.10;99.90;;;;;;5119773;27;20043;-71
2023/07/28 05:24:44;;;;;;;34.17;13.82;;;18.10;99.90;;;;;;5119318;27;20462;-72
2023/07/28 05:27:10;;;;;;;35.35;13.57;;;18.10;99.90;;;;;;5120014;27;20091;-73
2023/07/28 05:29:36;;;;;;;31.95;13.70;;;18.10;99.90;;;;;;5137723;27;20039;-72
2023/07/28 05:32:03;;;;;;;36.03;14.50;;;18.10;99.90;;;;;;5137972;27;20050;-71
2023/07/28 05:34:29;;;;;;;31.75;13.70;;;18.10;99.90;;;;;;5139009;27;20069;-73
2023/07/28 05:36:55;;;;;;;39.42;13.90;;;18.20;99.90;;;;;;5149760;27;20072;-72
2023/07/28 05:39:21;;;;;;;33.70;14.27;;;18.20;99.90;;;;;;5139011;27;20051;-71
2023/07/28 05:41:47;;;;;;;38.17;14.30;;;18.20;99.90;;;;;;5121030;27;20039;-71
2023/07/28 05:44:13;;;;;;;30.33;13.23;;;18.20;99.90;;;;;;5120194;27;20043;-72
2023/07/28 05:46:39;;;;;;;29.27;12.17;;;18.30;99.90;;;;;;5137602;27;20441;-74
2023/07/28 05:49:04;;;;;;;26.63;9.77;;;18.30;99.90;;;;;;5137314;27;20039;-71
2023/07/28 05:51:31;;;;;;;28.87;12.30;;;18.40;99.90;;;;;;5137530;27;20043;-72
2023/07/28 05:53:57;;;;;;;28.30;12.27;;;18.40;99.90;;;;;;5138072;27;20062;-72
2023/07/28 05:56:22;;;;;;;26.13;12.70;;;18.40;99.90;;;;;;5137016;27;20486;-71
2023/07/28 05:58:49;;;;;;;31.57;12.40;;;18.40;99.90;;;;;;5153782;27;20047;-75
2023/07/28 06:01:15;;;;;;;28.13;12.68;;;18.40;99.90;;;;;;5102254;27;20478;-72
2023/07/28 06:03:42;;;;;;;33.15;13.30;;;18.50;99.90;;;;;;5137486;27;20045;-71
2023/07/28 06:06:08;;;;;;;28.50;13.10;;;18.50;99.90;;;;;;5119643;27;20425;-71
2023/07/28 06:08:35;;;;;;;33.57;13.17;;;18.60;99.90;;;;;;5136756;27;20035;-71
2023/07/28 06:11:04;;;;;;;28.23;12.27;;;18.60;99.90;;;;;;5136404;27;20102;-71
2023/07/28 06:13:29;;;;;;;35.85;13.00;;;18.70;99.90;;;;;;5136805;27;20413;-72
2023/07/28 06:15:58;;;;;;;32.92;13.45;;;18.70;99.90;;;;;;5119134;27;20043;-72
2023/07/28 06:18:24;;;;;;;33.50;13.40;;;18.80;99.90;;;;;;5136833;27;20046;-72
2023/07/28 06:20:49;;;;;;;29.27;11.57;;;18.90;99.90;;;;;;5118492;27;20046;-71
2023/07/28 06:23:15;;;;;;;32.00;12.60;;;18.90;99.90;;;;;;5118803;27;20107;-75
2023/07/28 06:25:45;;;;;;;28.00;12.67;;;18.90;99.90;;;;;;5136926;27;20035;-72
2023/07/28 06:28:11;;;;;;;29.10;11.77;;;18.90;99.90;;;;;;5135879;27;20064;-71
2023/07/28 06:30:38;;;;;;;31.15;12.13;;;19.00;99.90;;;;;;5085812;27;20096;-70
2023/07/28 06:33:06;;;;;;;25.27;11.85;;;19.00;99.90;;;;;;5137700;27;20042;-71
2023/07/28 06:35:32;;;;;;;30.58;12.38;;;19.10;99.90;;;;;;5152305;27;20099;-71
2023/07/28 06:38:00;;;;;;;23.70;11.13;;;19.20;99.90;;;;;;5118289;27;20051;-73
2023/07/28 06:40:26;;;;;;;22.77;11.02;;;19.20;99.90;;;;;;5136407;27;20047;-72
2023/07/28 06:42:51;;;;;;;26.23;11.30;;;19.40;99.90;;;;;;5120294;27;20045;-72
2023/07/28 06:45:17;;;;;;;24.13;11.00;;;19.50;99.90;;;;;;5132702;27;20077;-71
2023/07/28 06:47:43;;;;;;;22.03;10.33;;;19.60;99.90;;;;;;5145159;27;20042;-72
2023/07/28 06:50:11;;;;;;;21.95;10.18;;;19.60;99.90;;;;;;5135734;27;20478;-71
2023/07/28 06:52:36;;;;;;;23.20;10.05;;;19.70;99.90;;;;;;5117687;27;20466;-71
2023/07/28 06:55:03;;;;;;;18.83;9.23;;;19.70;99.90;;;;;;5135916;27;20127;-73
2023/07/28 06:57:30;;;;;;;23.58;10.07;;;19.80;99.90;;;;;;5100985;27;20047;-71
2023/07/28 06:59:56;;;;;;;;;;;19.90;99.90;;;;;;5119212;27;20069;-70
2023/07/28 07:02:22;;;;;;;15.63;7.68;;;19.90;99.90;;;;;;5136052;27;20351;-71
2023/07/28 07:04:48;;;;;;;23.83;10.03;;;19.90;99.90;;;;;;5136590;27;20439;-77
2023/07/28 07:07:13;;;;;;;23.03;9.70;;;19.90;99.90;;;;;;5136022;27;20312;-71
2023/07/28 07:09:40;;;;;;;21.53;9.77;;;19.90;99.90;;;;;;5135715;27;20133;-71
2023/07/28 07:12:09;;;;;;;25.13;9.80;;;19.80;99.90;;;;;;5136253;27;20042;-73
2023/07/28 07:14:35;;;;;;;24.52;10.18;;;19.80;99.90;;;;;;5135944;27;20084;-73
2023/07/28 07:17:01;;;;;;;24.83;9.93;;;19.80;99.90;;;;;;5135389;27;20047;-70
2023/07/28 07:19:30;;;;;;;20.10;9.47;;;19.90;99.90;;;;;;5135544;27;20532;-70
2023/07/28 07:21:56;;;;;;;22.27;9.85;;;20.00;99.90;;;;;;5135419;27;20062;-71
2023/07/28 07:24:22;;;;;;;22.42;9.85;;;20.10;99.90;;;;;;5136325;27;20074;-70
2023/07/28 07:26:47;;;;;;;24.77;9.83;;;20.30;99.90;;;;;;5135172;27;20495;-72
2023/07/28 07:29:13;;;;;;;17.70;9.47;;;20.40;99.90;;;;;;5099783;27;20050;-71
2023/07/28 07:31:39;;;;;;;21.13;9.30;;;20.40;99.90;;;;;;5135634;27;20082;-70
2023/07/28 07:34:05;;;;;;;22.85;9.75;;;20.40;99.90;;;;;;5117305;27;20046;-71
2023/07/28 07:36:31;;;;;;;23.03;9.53;;;20.40;99.90;;;;;;5135308;27;20039;-71
2023/07/28 07:38:58;;;;;;;17.47;9.07;;;20.30;99.90;;;;;;5117409;27;20340;-72
2023/07/28 07:41:24;;;;;;;21.35;9.90;;;20.30;99.90;;;;;;5100153;27;20343;-71
2023/07/28 07:43:53;;;;;;;17.60;8.83;;;20.40;99.90;;;;;;5135432;27;20054;-72
2023/07/28 07:46:19;;;;;;;19.77;8.93;;;20.50;99.90;;;;;;5135019;27;20329;-72
2023/07/28 07:48:45;;;;;;;17.23;8.88;;;20.60;99.90;;;;;;5134558;27;20039;-72
2023/07/28 07:51:11;;;;;;;19.25;7.97;;;20.70;99.90;;;;;;5135103;27;20039;-73
2023/07/28 07:53:37;;;;;;;13.97;7.13;;;20.80;99.90;;;;;;5146565;27;20046;-72
2023/07/28 07:56:04;;;;;;;22.07;7.87;;;20.90;99.90;;;;;;5148001;27;20736;-72
2023/07/28 07:58:30;;;;;;;18.55;7.35;;;21.00;99.90;;;;;;5135194;28;20064;-71
2023/07/28 08:00:56;;;;;;;18.70;7.03;;;21.00;99.90;;;;;;5117273;28;20043;-75
2023/07/28 08:03:22;;;;;;;14.32;7.00;;;20.90;99.90;;;;;;5135455;28;20348;-73
2023/07/28 08:05:47;;;;;;;16.23;6.77;;;21.10;99.90;;;;;;5117753;28;20081;-72
2023/07/28 08:08:17;;;;;;;14.63;6.20;;;21.10;99.90;;;;;;5135463;28;20521;-75
2023/07/28 08:10:49;;;;;;;14.45;6.43;;;21.30;99.90;;;;;;5135147;28;20107;-72
2023/07/28 08:13:15;;;;;;;;;;;21.40;99.90;;;;;;5135058;28;20051;-72
2023/07/28 08:15:43;;;;;;;16.23;5.97;;;21.50;99.90;;;;;;5152019;27;19915;-72
2023/07/28 08:18:10;;;;;;;13.15;6.50;;;21.50;99.90;;;;;;5116337;28;20539;-73
2023/07/28 08:20:36;;;;;;;;;;;21.30;99.90;;;;;;5135204;28;20054;-72
2023/07/28 08:23:01;;;;;;;14.18;6.10;;;21.30;99.90;;;;;;5134650;28;19915;-71
2023/07/28 08:25:27;;;;;;;16.97;5.90;;;21.30;99.90;;;;;;5134618;28;20039;-72
2023/07/28 08:27:53;;;;;;;10.43;5.57;;;21.30;99.90;;;;;;5135028;28;20045;-71
2023/07/28 08:30:19;;;;;;;10.20;5.80;;;21.40;99.90;;;;;;5116575;28;20101;-74
2023/07/28 08:32:45;;;;;;;11.30;5.55;;;21.50;99.90;;;;;;5134767;28;20049;-72
2023/07/28 08:35:11;;;;;;;13.53;5.90;;;21.60;99.90;;;;;;5134642;28;20039;-72
2023/07/28 08:37:36;;;;;;;15.27;6.73;;;21.70;99.90;;;;;;5116520;28;20050;-72
2023/07/28 08:40:04;;;;;;;13.97;6.43;;;21.60;99.90;;;;;;5135064;28;20045;-73
2023/07/28 08:42:35;;;;;;;15.48;6.40;;;21.60;99.90;;;;;;5116389;28;20042;-71
2023/07/28 08:45:04;;;;;;;16.60;5.78;;;21.60;99.90;;;;;;5151022;27;20039;-72
2023/07/28 08:47:30;;;;;;;18.55;7.30;;;21.80;99.90;;;;;;5116479;28;20039;-71
2023/07/28 08:49:57;;;;;;;17.40;7.15;;;21.90;99.90;;;;;;5099580;28;20091;-72
2023/07/28 08:52:23;;;;;;;16.77;7.80;;;22.00;99.90;;;;;;5116412;28;20047;-72
2023/07/28 08:54:49;;;;;;;;;;;22.10;99.90;;;;;;5117100;28;20475;-73
2023/07/28 08:57:19;;;;;;;16.30;7.50;;;22.00;99.90;;;;;;5152857;27;19919;-71
2023/07/28 08:59:47;;;;;;;22.40;7.60;;;21.90;99.90;;;;;;5126601;27;20035;-71
2023/07/28 09:02:15;;;;;;;15.48;6.55;;;21.80;99.90;;;;;;5141251;27;20054;-71
2023/07/28 09:04:46;;;;;;;16.88;6.78;;;21.90;99.90;;;;;;5131688;27;20035;-72
2023/07/28 09:07:12;;;;;;;16.13;7.50;;;22.00;99.90;;;;;;5139203;27;20043;-71
2023/07/28 09:09:38;;;;;;;19.02;7.47;;;22.30;99.90;;;;;;5116666;28;20436;-71
2023/07/28 09:12:05;;;;;;;16.83;6.97;;;22.50;99.90;;;;;;5117281;28;20153;-71
2023/07/28 09:14:31;;;;;;;19.40;7.53;;;22.70;99.90;;;;;;5117524;28;20043;-72
2023/07/28 09:17:09;;;;;;;17.52;7.55;;;22.80;99.90;;;;;;5117434;28;20432;-71
2023/07/28 09:19:48;;;;;;;16.60;7.05;;;22.70;99.90;;;;;;5117830;28;20036;-70
2023/07/28 09:22:14;;;;;;;17.58;7.20;;;22.60;99.90;;;;;;5117306;28;20169;-71
2023/07/28 09:24:39;;;;;;;16.67;7.00;;;22.40;99.90;;;;;;5116192;28;20071;-72
2023/07/28 09:27:05;;;;;;;16.10;6.57;;;22.30;99.90;;;;;;5117443;28;20047;-71
2023/07/28 09:29:31;;;;;;;20.73;7.90;;;22.30;99.90;;;;;;5117197;28;20036;-72
2023/07/28 09:32:05;;;;;;;17.30;6.90;;;22.40;99.90;;;;;;5117242;28;20269;-69
2023/07/28 09:34:32;;;;;;;14.80;6.97;;;22.70;99.90;;;;;;5115537;28;20463;-71
2023/07/28 09:37:00;;;;;;;15.02;6.40;;;22.90;99.90;;;;;;5117165;28;20043;-73
2023/07/28 09:39:27;;;;;;;13.65;6.35;;;23.20;99.90;;;;;;5115919;28;20043;-71
2023/07/28 09:41:57;;;;;;;15.40;6.40;;;23.40;99.90;;;;;;5115759;28;20043;-70
2023/07/28 09:44:23;;;;;;;17.08;7.45;;;23.40;99.90;;;;;;5117249;28;20039;-71
2023/07/28 09:46:53;;;;;;;14.53;6.73;;;23.40;99.90;;;;;;5116656;28;20456;-71
2023/07/28 09:49:42;;;;;;;12.75;5.03;;;23.50;99.90;;;;;;5115391;28;20036;-70
2023/07/28 09:52:14;;;;;;;14.10;6.50;;;23.50;99.90;;;;;;5115799;28;20035;-70
2023/07/28 09:54:41;;;;;;;18.17;6.30;;;23.40;99.90;;;;;;5115357;28;20122;-71
2023/07/28 09:57:16;;;;;;;17.20;6.53;;;23.30;99.90;;;;;;5116374;28;20039;-71
2023/07/28 09:59:45;;;;;;;12.15;5.60;;;23.40;99.90;;;;;;5117022;28;20051;-70
2023/07/28 10:02:10;;;;;;;14.20;6.20;;;23.40;99.90;;;;;;5115176;28;20047;-69
2023/07/28 10:04:37;;;;;;;14.50;5.97;;;23.40;99.90;;;;;;5115502;28;20044;-70
2023/07/28 10:07:05;;;;;;;13.45;5.75;;;23.50;99.90;;;;;;5115765;28;20036;-70
2023/07/28 10:09:33;;;;;;;15.45;6.55;;;23.50;99.90;;;;;;5122572;27;20058;-70
2023/07/28 10:12:00;;;;;;;19.20;7.25;;;23.20;99.90;;;;;;5151102;27;20382;-71
2023/07/28 10:14:30;;;;;;;17.58;7.15;;;23.00;99.90;;;;;;5138240;27;20065;-70
2023/07/28 10:16:58;;;;;;;13.70;7.20;;;23.20;99.90;;;;;;5119747;27;20103;-69
2023/07/28 10:19:26;;;;;;;16.10;7.43;;;23.30;99.90;;;;;;5137087;27;20092;-71
2023/07/28 10:22:09;;;;;;;15.15;6.38;;;23.50;99.90;;;;;;5136771;27;20467;-69
2023/07/28 10:25:00;;;;;;;10.82;5.70;;;23.50;99.90;;;;;;5118979;27;20101;-69
2023/07/28 10:27:38;;;;;;;12.85;4.90;;;23.70;99.90;;;;;;5101399;27;20035;-71
2023/07/28 10:30:09;;;;;;;9.90;4.15;;;23.70;99.90;;;;;;5136514;27;20039;-72
2023/07/28 10:32:40;;;;;;;12.35;5.75;;;24.00;99.90;;;;;;5102219;27;20059;-70
2023/07/28 10:35:08;;;;;;;9.90;5.15;;;24.40;99.90;;;;;;5136752;27;20112;-70
2023/07/28 10:37:36;;;;;;;12.27;6.07;;;24.60;99.90;;;;;;5118526;27;20423;-70
2023/07/28 10:40:26;;;;;;;11.90;5.53;;;24.70;99.90;;;;;;5118067;27;20118;-70
2023/07/28 10:42:52;;;;;;;12.55;6.03;;;24.50;99.90;;;;;;5136302;27;20079;-70
2023/07/28 10:45:19;;;;;;;11.25;6.90;;;24.20;99.90;;;;;;5136290;27;20125;-69
2023/07/28 10:47:46;;;;;;;12.63;6.82;;;23.80;99.90;;;;;;5117834;27;20051;-71
2023/07/28 10:50:12;;;;;;;13.57;7.07;;;23.60;99.90;;;;;;5117699;27;20096;-70
2023/07/28 10:52:45;;;;;;;16.17;8.32;;;23.60;99.90;;;;;;5136107;27;20043;-70
2023/07/28 10:55:20;;;;;;;18.10;8.95;;;23.50;99.90;;;;;;5118132;27;20070;-70
2023/07/28 10:57:47;;;;;;;16.05;8.80;;;23.60;99.90;;;;;;5136465;27;20041;-70
2023/07/28 11:00:18;;;;;;;15.25;7.88;;;23.50;99.90;;;;;;5101039;27;20043;-69
2023/07/28 11:02:45;;;;;;;15.98;8.27;;;23.40;99.90;;;;;;5135552;27;20494;-69
2023/07/28 11:05:14;;;;;;;13.05;7.95;;;23.20;99.90;;;;;;5135804;27;20133;-71
2023/07/28 11:07:44;;;;;;;14.10;7.50;;;23.20;99.90;;;;;;5135665;27;20423;-69
2023/07/28 11:10:14;;;;;;;15.50;8.02;;;23.20;99.90;;;;;;5151773;27;20051;-69
2023/07/28 11:12:49;;;;;;;9.50;5.60;;;23.10;99.90;;;;;;5135624;27;20051;-68
2023/07/28 11:15:15;;;;;;;12.98;7.00;;;23.00;99.90;;;;;;5119402;27;20050;-69
2023/07/28 11:17:44;;;;;;;11.38;6.15;;;22.80;99.90;;;;;;5129474;27;20060;-68
2023/07/28 11:20:30;;;;;;;10.65;5.95;;;22.80;99.90;;;;;;5133227;27;20043;-70
2023/07/28 11:22:57;;;;;;;12.30;6.47;;;22.90;99.90;;;;;;5136139;27;20035;-70
2023/07/28 11:25:24;;;;;;;11.77;6.18;;;22.80;99.90;;;;;;5135481;27;20371;-69
2023/07/28 11:27:50;;;;;;;13.40;6.68;;;22.70;99.90;;;;;;5117035;27;20068;-69
2023/07/28 11:30:18;;;;;;;14.15;7.55;;;22.80;99.90;;;;;;5099853;27;20035;-68
2023/07/28 11:32:48;;;;;;;11.52;6.28;;;22.90;99.90;;;;;;5135338;27;20374;-69
2023/07/28 11:35:17;;;;;;;11.95;6.55;;;23.00;99.90;;;;;;5135262;27;20039;-69
2023/07/28 11:37:45;;;;;;;11.98;6.97;;;23.10;99.90;;;;;;5135119;27;20449;-68
2023/07/28 11:40:12;;;;;;;13.13;6.70;;;23.20;99.90;;;;;;5135217;27;20035;-68
2023/07/28 11:42:40;;;;;;;14.30;7.20;;;23.50;99.90;;;;;;5117456;27;20099;-71
2023/07/28 11:45:07;;;;;;;11.57;6.68;;;23.40;99.90;;;;;;5135641;27;20057;-70
2023/07/28 11:47:33;;;;;;;13.43;7.40;;;23.70;99.90;;;;;;5134804;27;20047;-69
2023/07/28 11:50:00;;;;;;;12.07;6.22;;;23.60;99.90;;;;;;5117207;27;20038;-68
2023/07/28 11:52:36;;;;;;;15.23;7.07;;;23.60;99.90;;;;;;5117484;27;20043;-68
2023/07/28 11:55:02;;;;;;;;;;;23.80;99.90;;;;;;5116962;27;20039;-69
2023/07/28 11:57:32;;;;;;;12.57;6.75;;;23.80;99.90;;;;;;5134795;27;20007;-70
2023/07/28 11:59:59;;;;;;;17.23;7.28;;;23.80;99.90;;;;;;5100768;27;20409;-69
2023/07/28 12:02:28;;;;;;;;;;;23.70;99.90;;;;;;5135735;28;20387;-69
2023/07/28 12:04:57;;;;;;;11.98;6.47;;;23.70;99.90;;;;;;5134555;28;19922;-69
2023/07/28 12:07:33;;;;;;;16.30;7.13;;;23.80;99.90;;;;;;5117044;28;20051;-70
2023/07/28 12:10:08;;;;;;;13.10;6.68;;;23.80;99.90;;;;;;5135101;28;20533;-70
2023/07/28 12:12:44;;;;;;;12.43;6.22;;;23.80;99.90;;;;;;5116385;28;20134;-69
2023/07/28 12:15:29;;;;;;;15.13;6.10;;;24.10;99.90;;;;;;5134769;28;20047;-69
2023/07/28 12:18:05;;;;;;;9.63;4.75;;;24.30;99.90;;;;;;5135062;28;20478;-69
2023/07/28 12:20:57;;;;;;;14.38;5.70;;;24.60;99.90;;;;;;5152149;27;20047;-70
2023/07/28 12:23:23;;;;;;;9.30;4.97;;;24.80;99.90;;;;;;5147671;28;20077;-70
2023/07/28 12:25:58;;;;;;;12.70;5.30;;;24.90;99.90;;;;;;5121588;28;20043;-71
2023/07/28 12:28:24;;;;;;;10.65;4.80;;;25.20;99.90;;;;;;5135666;28;20050;-70
2023/07/28 12:30:51;;;;;;;9.60;4.63;;;25.40;99.90;;;;;;5115797;28;20374;-69
2023/07/28 12:33:17;;;;;;;9.05;4.80;;;25.50;99.90;;;;;;5134856;27;20559;-70
2023/07/28 12:35:43;;;;;;;11.20;5.63;;;25.40;99.90;;;;;;5138716;27;20047;-70